Terminal Aerodrome Forecast
Issued by NWS Portland, ME

Current Version | Previous Version | Text Only | Print | Product List | Glossary On
Versions: 1 2 3 4 5 6 7 8 9 10 11 12 13 14 15 16 17 18 19
000 FTUS41 KGYX 020135 AAA TAFPWM TAF AMD KPWM 020135Z 0202/0224 02007KT P6SM BKN023 FM020500 03012KT 5SM BR SCT003 OVC015 FM020900 02011KT 2SM BR OVC007 FM021300 03011KT P6SM OVC015 FM021500 02010KT P6SM BKN120=

USA.gov is the U.S. government's official web portal to all federal, state and local government web resources and services.